Fairplain, West Virginia
Current Conditions -  °F | °C
As of 4:35 PM on Sunday 23 Nov 2014 (Local Time) from K3I2 Reporting Station
Light Rain Light Rain  
Wind Chill: 63°   Ceiling: Unl
Heat Index: 63°   Visibility: 10mi
Dew Point: 43°   Wind: 7mph
Humidity: 48%   Direction: 120°ESE
Pressure: 29.76"   Gusts: NA
Location:  38.8125°N, 81.6945°W
Report Text: K3I2 232135Z AUTO 12006KT 10SM -RA SCT027 SCT034 SCT043 17/06 A2976 RMK AO2
Loading
Personal Weather Stations






























Interactive Weather Map New forecast layout! Learn more

10-Day Weather Forecast

Advertisements
Track Severe Weather on mobile